createdAt,value
2018-10-21T00:01:20.955Z,8.07
2018-10-21T00:03:48.747Z,7.30
2018-10-21T00:06:16.520Z,7.80
2018-10-21T00:08:44.458Z,8.03
2018-10-21T00:11:12.326Z,7.83
2018-10-21T00:13:40.092Z,7.63
2018-10-21T00:16:07.878Z,8.00
2018-10-21T00:18:35.685Z,8.70
2018-10-21T00:21:03.558Z,8.43
2018-10-21T00:23:31.511Z,8.33
2018-10-21T00:25:59.320Z,8.70
2018-10-21T00:28:27.351Z,8.30
2018-10-21T00:30:55.131Z,8.73
2018-10-21T00:33:22.940Z,8.30
2018-10-21T00:35:50.779Z,8.93
2018-10-21T00:38:18.571Z,8.57
2018-10-21T00:40:46.429Z,8.73
2018-10-21T00:43:14.228Z,8.37
2018-10-21T00:45:42.018Z,8.23
2018-10-21T00:48:09.799Z,8.33
2018-10-21T00:50:37.583Z,8.13
2018-10-21T00:53:05.405Z,8.30
2018-10-21T00:55:33.169Z,8.33
2018-10-21T00:58:01.592Z,8.63
2018-10-21T01:00:29.392Z,8.10
2018-10-21T01:02:57.583Z,8.23
2018-10-21T01:05:26.419Z,8.03
2018-10-21T01:07:54.217Z,8.53
2018-10-21T01:10:22.011Z,9.23
2018-10-21T01:12:49.783Z,7.60
2018-10-21T01:15:17.647Z,8.07
2018-10-21T01:17:45.415Z,7.97
2018-10-21T01:20:13.230Z,7.47
2018-10-21T01:22:41.592Z,7.83
2018-10-21T01:25:09.894Z,7.73
2018-10-21T01:27:38.731Z,7.17
2018-10-21T01:30:08.415Z,6.43
2018-10-21T01:32:36.235Z,6.63
2018-10-21T01:35:04.895Z,6.30
2018-10-21T01:37:32.751Z,6.30
2018-10-21T01:40:47.785Z,6.50
2018-10-21T01:43:17.748Z,6.60
2018-10-21T01:45:45.623Z,5.90
2018-10-21T01:48:14.696Z,6.27
2018-10-21T01:50:42.790Z,6.07
2018-10-21T01:53:11.663Z,5.80
2018-10-21T01:55:39.471Z,5.73
2018-10-21T01:58:07.516Z,5.50
2018-10-21T02:00:35.666Z,5.87
2018-10-21T02:03:03.790Z,5.27
2018-10-21T02:05:32.038Z,6.80
2018-10-21T02:07:59.911Z,6.07
2018-10-21T02:10:28.382Z,6.23
2018-10-21T02:12:56.514Z,6.87
2018-10-21T02:15:25.328Z,6.60
2018-10-21T02:17:53.118Z,6.60
2018-10-21T02:20:21.691Z,6.80
2018-10-21T02:22:49.963Z,6.63
2018-10-21T02:25:17.846Z,7.70
2018-10-21T02:27:46.423Z,7.20
2018-10-21T02:30:16.227Z,7.03
2018-10-21T02:32:44.917Z,6.53
2018-10-21T02:35:16.376Z,6.97
2018-10-21T02:37:44.432Z,7.40
2018-10-21T02:41:33.612Z,7.00
2018-10-21T02:44:02.087Z,6.00
2018-10-21T02:46:30.563Z,5.87
2018-10-21T02:48:59.120Z,6.17
2018-10-21T02:51:26.941Z,6.13
2018-10-21T02:53:57.032Z,6.03
2018-10-21T02:56:24.879Z,5.53
2018-10-21T02:58:52.752Z,5.83
2018-10-21T03:01:20.573Z,6.10
2018-10-21T03:03:52.655Z,5.73
2018-10-21T03:06:20.507Z,5.73
2018-10-21T03:08:48.425Z,5.90
2018-10-21T03:11:16.735Z,5.20
2018-10-21T03:13:44.640Z,5.27
2018-10-21T03:16:12.514Z,5.27
2018-10-21T03:18:40.424Z,5.33
2018-10-21T03:21:08.320Z,5.13
2018-10-21T03:23:36.155Z,5.60
2018-10-21T03:26:04.207Z,5.10
2018-10-21T03:28:32.591Z,5.77
2018-10-21T03:31:00.775Z,5.33
2018-10-21T03:33:28.843Z,5.63
2018-10-21T03:35:56.760Z,5.13
2018-10-21T03:38:24.707Z,4.70
2018-10-21T03:40:52.592Z,5.37
2018-10-21T03:43:20.439Z,5.07
2018-10-21T03:45:48.251Z,5.60
2018-10-21T03:48:16.077Z,6.17
2018-10-21T03:50:44.007Z,5.57
2018-10-21T03:53:11.859Z,5.23
2018-10-21T03:55:40.850Z,5.20
2018-10-21T03:58:08.835Z,5.33
2018-10-21T04:00:37.211Z,5.47
2018-10-21T04:05:38.560Z,5.33
2018-10-21T04:08:06.487Z,5.70
2018-10-21T04:10:34.510Z,6.03
2018-10-21T04:13:02.479Z,5.03
2018-10-21T04:15:30.411Z,5.13
2018-10-21T04:17:58.248Z,5.30
2018-10-21T04:20:26.152Z,5.53
2018-10-21T04:22:55.180Z,5.37
2018-10-21T04:25:23.967Z,4.83
2018-10-21T04:27:52.752Z,4.60
2018-10-21T04:30:29.507Z,4.40
2018-10-21T04:34:01.810Z,4.27
2018-10-21T04:36:30.946Z,4.27
2018-10-21T04:39:41.567Z,4.43
2018-10-21T04:42:09.379Z,4.20
2018-10-21T04:44:40.225Z,5.00
2018-10-21T04:47:08.313Z,4.83
2018-10-21T04:49:35.983Z,4.67
2018-10-21T04:52:03.957Z,4.50
2018-10-21T04:54:33.871Z,4.87
2018-10-21T04:57:02.359Z,4.90
2018-10-21T04:59:30.196Z,4.77
2018-10-21T05:01:58.042Z,4.20
2018-10-21T05:04:30.057Z,3.87
2018-10-21T05:06:57.941Z,3.60
2018-10-21T05:09:25.851Z,3.37
2018-10-21T05:11:53.988Z,3.33
2018-10-21T05:14:22.034Z,2.70
2018-10-21T05:16:49.856Z,2.73
2018-10-21T05:19:18.074Z,2.83
2018-10-21T05:21:45.974Z,2.90
2018-10-21T05:24:13.924Z,2.57
2018-10-21T05:26:41.755Z,2.53
2018-10-21T05:29:09.612Z,2.60
2018-10-21T05:31:37.444Z,2.57
2018-10-21T05:34:05.619Z,2.43
2018-10-21T05:36:33.482Z,2.60
2018-10-21T05:39:01.327Z,2.37
2018-10-21T05:41:29.153Z,2.37
2018-10-21T05:43:57.049Z,2.70
2018-10-21T05:46:50.341Z,3.10
2018-10-21T05:49:18.170Z,3.13
2018-10-21T05:51:47.192Z,3.17
2018-10-21T05:54:15.956Z,2.93
2018-10-21T05:56:45.024Z,3.10
2018-10-21T05:59:13.534Z,3.57
2018-10-21T06:01:41.872Z,3.77
2018-10-21T06:04:10.669Z,3.40
2018-10-21T06:06:38.876Z,3.30
2018-10-21T06:09:08.831Z,3.37
2018-10-21T06:11:36.676Z,4.00
2018-10-21T06:14:05.204Z,3.90
2018-10-21T06:16:38.699Z,3.43
2018-10-21T06:19:11.179Z,3.67
2018-10-21T06:21:40.043Z,3.20
2018-10-21T06:24:07.972Z,3.43
2018-10-21T06:26:35.804Z,3.10
2018-10-21T06:29:03.705Z,3.37
2018-10-21T06:31:31.580Z,3.00
2018-10-21T06:33:59.392Z,3.13
2018-10-21T06:36:27.211Z,3.00
2018-10-21T06:38:55.300Z,2.80
2018-10-21T06:41:23.177Z,3.07
2018-10-21T06:43:51.044Z,2.90
2018-10-21T06:46:18.905Z,2.77
2018-10-21T06:48:46.767Z,3.40
2018-10-21T06:51:14.639Z,5.90
2018-10-21T06:53:42.502Z,4.20
2018-10-21T06:56:10.341Z,3.80
2018-10-21T06:58:38.243Z,2.97
2018-10-21T07:01:11.759Z,3.40
2018-10-21T07:03:39.637Z,3.40
2018-10-21T07:06:11.845Z,3.17
2018-10-21T07:08:39.787Z,4.53
2018-10-21T07:11:07.636Z,4.17
2018-10-21T07:13:35.626Z,3.77
2018-10-21T07:16:04.162Z,3.83
2018-10-21T07:18:33.137Z,3.37
2018-10-21T07:21:01.319Z,3.40
2018-10-21T07:23:29.377Z,3.13
2018-10-21T07:25:57.281Z,3.43
2018-10-21T07:28:25.540Z,3.63
2018-10-21T07:30:53.587Z,3.30
2018-10-21T07:33:21.409Z,3.40
2018-10-21T07:35:49.250Z,3.67
2018-10-21T07:38:17.124Z,3.43
2018-10-21T07:40:45.232Z,3.37
2018-10-21T07:43:13.057Z,3.70
2018-10-21T07:45:40.863Z,3.03
2018-10-21T07:48:08.767Z,3.77
2018-10-21T07:50:36.587Z,3.67
2018-10-21T07:53:04.753Z,3.80
2018-10-21T07:55:32.903Z,4.07
2018-10-21T07:58:00.789Z,3.90
2018-10-21T08:00:28.756Z,4.20
2018-10-21T08:02:56.729Z,3.73
2018-10-21T08:05:42.217Z,4.23
2018-10-21T08:08:13.538Z,3.93
2018-10-21T08:10:41.803Z,3.83
2018-10-21T08:13:11.678Z,4.10
2018-10-21T08:15:40.175Z,4.53
2018-10-21T08:18:09.164Z,3.90
2018-10-21T08:20:37.548Z,4.53
2018-10-21T08:23:06.538Z,4.43
2018-10-21T08:25:34.643Z,4.40
2018-10-21T08:28:02.809Z,4.30
2018-10-21T08:30:30.851Z,4.93
2018-10-21T08:32:59.576Z,4.87
2018-10-21T08:35:27.342Z,4.97
2018-10-21T08:37:55.200Z,4.60
2018-10-21T08:40:23.139Z,4.93
2018-10-21T08:42:54.494Z,5.20
2018-10-21T08:45:22.710Z,4.93
2018-10-21T08:47:50.588Z,4.60
2018-10-21T08:50:18.479Z,4.67
2018-10-21T08:52:46.294Z,4.60
2018-10-21T08:55:14.192Z,4.77
2018-10-21T08:57:42.272Z,4.50
2018-10-21T09:00:13.347Z,4.70
2018-10-21T09:02:41.623Z,4.57
2018-10-21T09:05:11.144Z,4.30
2018-10-21T09:07:39.493Z,4.73
2018-10-21T09:10:09.215Z,4.97
2018-10-21T09:12:37.276Z,5.43
2018-10-21T09:15:07.504Z,4.73
2018-10-21T09:17:35.418Z,5.03
2018-10-21T09:20:03.736Z,5.17
2018-10-21T09:22:31.981Z,4.83
2018-10-21T09:24:59.990Z,5.30
2018-10-21T09:27:27.795Z,4.30
2018-10-21T09:29:55.752Z,4.87
2018-10-21T09:32:23.749Z,5.27
2018-10-21T09:34:51.540Z,5.13
2018-10-21T09:37:19.464Z,4.90
2018-10-21T09:39:47.299Z,5.90
2018-10-21T09:42:15.212Z,5.13
2018-10-21T09:44:43.055Z,5.13
2018-10-21T09:47:10.845Z,5.80
2018-10-21T09:49:38.615Z,5.33
2018-10-21T09:52:06.583Z,6.10
2018-10-21T09:54:34.502Z,5.47
2018-10-21T09:57:02.624Z,5.43
2018-10-21T09:59:30.440Z,5.97
2018-10-21T10:02:04.145Z,5.83
2018-10-21T10:04:32.243Z,5.93
2018-10-21T10:07:00.446Z,5.97
2018-10-21T10:09:28.312Z,5.77
2018-10-21T10:11:56.280Z,5.77
2018-10-21T10:14:24.248Z,5.83
2018-10-21T10:16:52.206Z,6.87
2018-10-21T10:19:20.040Z,6.10
2018-10-21T10:21:47.960Z,6.87
2018-10-21T10:24:16.313Z,6.50
2018-10-21T10:26:44.139Z,6.43
2018-10-21T10:29:12.088Z,6.63
2018-10-21T10:31:39.940Z,7.03
2018-10-21T10:34:07.935Z,7.37
2018-10-21T10:36:35.931Z,7.73
2018-10-21T10:39:07.072Z,7.73
2018-10-21T10:41:34.957Z,8.27
2018-10-21T10:44:02.876Z,7.60
2018-10-21T10:46:34.491Z,7.90
2018-10-21T10:49:02.562Z,8.33
2018-10-21T10:51:30.371Z,7.87
2018-10-21T10:53:58.412Z,7.53
2018-10-21T10:56:26.226Z,8.47
2018-10-21T10:58:54.025Z,8.30
2018-10-21T11:01:21.875Z,8.53
2018-10-21T11:03:49.715Z,8.27
2018-10-21T11:06:17.675Z,8.27
2018-10-21T11:08:45.576Z,8.27
2018-10-21T11:11:13.731Z,8.30
2018-10-21T11:13:41.633Z,9.20
2018-10-21T11:16:09.629Z,8.73
2018-10-21T11:18:37.609Z,8.37
2018-10-21T11:21:05.612Z,8.07
2018-10-21T11:23:33.475Z,7.93
2018-10-21T11:26:01.841Z,8.57
2018-10-21T11:28:29.696Z,8.67
2018-10-21T11:30:57.585Z,7.50
2018-10-21T11:33:25.451Z,8.53
2018-10-21T11:35:53.323Z,8.27
2018-10-21T11:38:21.126Z,7.97
2018-10-21T11:40:49.122Z,8.57
2018-10-21T11:43:17.049Z,7.97
2018-10-21T11:45:45.076Z,8.53
2018-10-21T11:48:16.453Z,8.63
2018-10-21T11:50:44.272Z,8.57
2018-10-21T11:53:12.222Z,8.97
2018-10-21T11:55:41.149Z,8.40
2018-10-21T11:58:10.941Z,7.77
2018-10-21T12:00:38.843Z,9.00
2018-10-21T12:03:07.393Z,8.73
2018-10-21T12:05:35.335Z,8.20
2018-10-21T12:08:03.384Z,8.13
2018-10-21T12:10:31.366Z,9.07
2018-10-21T12:12:59.257Z,8.37
2018-10-21T12:15:27.115Z,8.53
2018-10-21T12:17:55.061Z,8.00
2018-10-21T12:20:22.989Z,8.30
2018-10-21T12:22:50.872Z,7.80
2018-10-21T12:25:18.703Z,8.30
2018-10-21T12:27:46.477Z,7.90
2018-10-21T12:30:14.289Z,8.53
2018-10-21T12:32:42.231Z,7.47
2018-10-21T12:35:11.490Z,7.70
2018-10-21T12:37:39.583Z,7.23
2018-10-21T12:40:08.817Z,7.57
2018-10-21T12:42:37.106Z,7.20
2018-10-21T12:45:07.524Z,7.57
2018-10-21T12:47:35.411Z,7.53
2018-10-21T12:50:07.083Z,8.23
2018-10-21T12:52:35.941Z,7.47
2018-10-21T12:55:05.031Z,7.33
2018-10-21T12:57:33.088Z,7.17
2018-10-21T13:00:00.958Z,8.07
2018-10-21T13:02:28.825Z,7.47
2018-10-21T13:04:56.855Z,7.00
2018-10-21T13:07:33.979Z,7.10
2018-10-21T13:10:01.948Z,6.60
2018-10-21T13:12:29.852Z,6.73
2018-10-21T13:14:57.711Z,7.10
2018-10-21T13:17:25.556Z,7.03
2018-10-21T13:19:53.451Z,6.50
2018-10-21T13:22:21.555Z,6.70
2018-10-21T13:24:49.515Z,6.23
2018-10-21T13:27:17.364Z,6.20
2018-10-21T13:29:45.189Z,6.30
2018-10-21T13:32:13.018Z,6.83
2018-10-21T13:34:41.057Z,5.97
2018-10-21T13:37:08.861Z,5.90
2018-10-21T13:39:36.611Z,5.90
2018-10-21T13:42:04.572Z,5.83
2018-10-21T13:44:32.516Z,6.10
2018-10-21T13:47:00.368Z,6.40
2018-10-21T13:49:28.273Z,5.30
2018-10-21T13:51:57.225Z,5.27
2018-10-21T13:54:24.879Z,5.63
2018-10-21T13:56:52.737Z,5.63
2018-10-21T13:59:20.612Z,5.53
2018-10-21T14:01:51.529Z,5.57
2018-10-21T14:04:19.536Z,5.53
2018-10-21T14:06:47.233Z,5.60
2018-10-21T14:09:16.234Z,5.60
2018-10-21T14:11:44.051Z,5.67
2018-10-21T14:14:11.966Z,6.37
2018-10-21T14:16:40.109Z,5.73
2018-10-21T14:19:08.472Z,5.20
2018-10-21T14:21:36.312Z,5.67
2018-10-21T14:24:04.237Z,8.27
2018-10-21T14:26:32.211Z,8.40
2018-10-21T14:29:00.042Z,6.60
2018-10-21T14:31:28.169Z,6.63
2018-10-21T14:33:56.077Z,6.33
2018-10-21T14:36:25.181Z,7.27
2018-10-21T14:38:53.087Z,6.53
2018-10-21T14:41:20.924Z,6.93
2018-10-21T14:43:49.439Z,5.53
2018-10-21T14:46:17.324Z,5.00
2018-10-21T14:48:45.292Z,5.43
2018-10-21T14:51:13.345Z,4.90
2018-10-21T14:53:41.188Z,4.70
2018-10-21T14:56:12.321Z,5.10
2018-10-21T14:58:40.343Z,4.77
2018-10-21T15:01:08.561Z,4.37
2018-10-21T15:03:37.114Z,4.53
2018-10-21T15:06:04.992Z,4.33
2018-10-21T15:08:33.028Z,4.30
2018-10-21T15:11:01.456Z,4.77
2018-10-21T15:13:29.416Z,4.73
2018-10-21T15:15:57.317Z,4.47
2018-10-21T15:18:25.346Z,5.07
2018-10-21T15:20:53.291Z,4.57
2018-10-21T15:23:21.304Z,4.87
2018-10-21T15:25:49.007Z,4.87
2018-10-21T15:28:17.002Z,4.87
2018-10-21T15:30:44.785Z,4.03
2018-10-21T15:33:12.761Z,4.23
2018-10-21T15:35:40.588Z,4.53
2018-10-21T15:38:08.817Z,4.20
2018-10-21T15:40:37.336Z,3.80
2018-10-21T15:43:05.225Z,3.83
2018-10-21T15:45:33.222Z,3.40
2018-10-21T15:48:01.488Z,3.30
2018-10-21T15:50:29.583Z,3.37
2018-10-21T15:52:57.439Z,3.00
2018-10-21T15:55:25.797Z,3.17
2018-10-21T15:57:57.713Z,3.97
2018-10-21T16:00:25.576Z,3.90
2018-10-21T16:02:53.744Z,3.40
2018-10-21T16:05:21.624Z,3.87
2018-10-21T16:07:49.786Z,3.23
2018-10-21T16:10:17.753Z,2.77
2018-10-21T16:12:45.781Z,2.93
2018-10-21T16:15:14.872Z,3.03
2018-10-21T16:17:43.848Z,2.70
2018-10-21T16:20:11.759Z,2.60
2018-10-21T16:22:40.820Z,3.10
2018-10-21T16:25:11.059Z,2.83
2018-10-21T16:27:39.293Z,3.17
2018-10-21T16:30:10.368Z,3.53
2018-10-21T16:32:39.230Z,3.07
2018-10-21T16:35:08.017Z,3.47
2018-10-21T16:37:36.071Z,3.37
2018-10-21T16:40:04.652Z,5.17
2018-10-21T16:42:32.655Z,8.47
2018-10-21T16:45:00.706Z,8.47
2018-10-21T16:47:28.596Z,8.73
2018-10-21T16:49:56.662Z,6.47
2018-10-21T16:52:24.623Z,4.33
2018-10-21T16:54:52.649Z,4.70
2018-10-21T16:57:20.649Z,4.40
2018-10-21T16:59:51.867Z,4.17
2018-10-21T17:02:19.701Z,4.20
2018-10-21T17:04:47.566Z,4.67
2018-10-21T17:07:15.614Z,3.93
2018-10-21T17:09:43.826Z,3.57
2018-10-21T17:12:13.299Z,3.30
2018-10-21T17:14:41.255Z,3.10
2018-10-21T17:17:09.239Z,3.20
2018-10-21T17:19:37.108Z,2.77
2018-10-21T17:22:05.126Z,2.87
2018-10-21T17:24:32.988Z,2.90
2018-10-21T17:27:00.854Z,2.70
2018-10-21T17:29:28.843Z,3.00
2018-10-21T17:31:56.693Z,3.10
2018-10-21T17:34:24.796Z,3.00
2018-10-21T17:36:52.906Z,3.20
2018-10-21T17:39:21.156Z,2.97
2018-10-21T17:41:49.248Z,3.00
2018-10-21T17:44:28.448Z,2.90
2018-10-21T17:46:56.524Z,2.87
2018-10-21T17:49:24.459Z,2.70
2018-10-21T17:51:52.475Z,3.03
2018-10-21T17:54:20.452Z,3.00
2018-10-21T17:56:54.017Z,2.90
2018-10-21T17:59:22.315Z,3.00
2018-10-21T18:01:50.429Z,2.87
2018-10-21T18:04:18.527Z,3.13
2018-10-21T18:06:46.450Z,3.13
2018-10-21T18:09:14.612Z,2.83
2018-10-21T18:11:42.977Z,3.07
2018-10-21T18:14:10.996Z,3.00
2018-10-21T18:16:41.140Z,2.90
2018-10-21T18:19:09.330Z,2.87
2018-10-21T18:21:37.250Z,3.37
2018-10-21T18:24:06.129Z,3.40
2018-10-21T18:26:34.140Z,3.07
2018-10-21T18:29:02.310Z,3.37
2018-10-21T18:31:30.459Z,3.30
2018-10-21T18:34:00.098Z,3.37
2018-10-21T18:36:28.457Z,2.93
2018-10-21T18:38:57.171Z,3.33
2018-10-21T18:41:25.843Z,3.27
2018-10-21T18:43:54.942Z,3.43
2018-10-21T18:46:23.052Z,3.23
2018-10-21T18:48:51.376Z,2.93
2018-10-21T18:51:19.419Z,3.10
2018-10-21T18:53:47.372Z,3.43
2018-10-21T18:56:15.358Z,3.30
2018-10-21T18:58:43.553Z,3.90
2018-10-21T19:01:11.779Z,4.73
2018-10-21T19:03:39.899Z,4.20
2018-10-21T19:06:08.095Z,3.70
2018-10-21T19:08:36.122Z,4.17
2018-10-21T19:11:04.961Z,4.20
2018-10-21T19:13:33.298Z,4.07
2018-10-21T19:16:01.242Z,4.27
2018-10-21T19:18:29.750Z,4.23
2018-10-21T19:20:58.104Z,5.43
2018-10-21T19:23:26.206Z,6.80
2018-10-21T19:25:54.316Z,6.13
2018-10-21T19:28:22.204Z,4.60
2018-10-21T19:30:50.258Z,3.70
2018-10-21T19:33:18.215Z,3.40
2018-10-21T19:35:46.189Z,3.10
2018-10-21T19:38:14.190Z,2.90
2018-10-21T19:40:43.177Z,2.67
2018-10-21T19:43:11.140Z,2.40
2018-10-21T19:45:39.759Z,2.60
2018-10-21T19:48:07.932Z,2.37
2018-10-21T19:51:03.756Z,2.20
2018-10-21T19:53:31.704Z,2.20
2018-10-21T19:56:01.004Z,1.93
2018-10-21T19:58:40.402Z,2.00
2018-10-21T20:01:08.280Z,2.33
2018-10-21T20:03:36.232Z,2.37
2018-10-21T20:06:04.337Z,2.20
2018-10-21T20:14:27.616Z,2.07
2018-10-21T20:16:55.455Z,2.30
2018-10-21T20:19:24.189Z,2.30
2018-10-21T20:21:52.077Z,2.00
2018-10-21T20:24:19.884Z,2.00
2018-10-21T20:26:47.775Z,2.00
2018-10-21T20:29:16.061Z,2.03
2018-10-21T20:31:43.867Z,2.10
2018-10-21T20:34:11.693Z,2.07
2018-10-21T20:36:40.036Z,2.10
2018-10-21T20:39:09.003Z,2.00
2018-10-21T20:41:37.279Z,2.30
2018-10-21T20:44:05.580Z,2.73
2018-10-21T20:46:34.623Z,3.20
2018-10-21T20:49:02.921Z,3.33
2018-10-21T20:51:30.872Z,3.47
2018-10-21T20:53:59.379Z,2.80
2018-10-21T20:56:27.154Z,2.90
2018-10-21T20:58:54.980Z,3.37
2018-10-21T21:01:22.967Z,3.70
2018-10-21T21:03:50.970Z,3.40
2018-10-21T21:06:18.903Z,3.50
2018-10-21T21:08:46.616Z,3.20
2018-10-21T21:11:14.770Z,4.33
2018-10-21T21:13:42.542Z,4.40
2018-10-21T21:16:10.339Z,3.63
2018-10-21T21:18:38.160Z,3.23
2018-10-21T21:21:06.027Z,3.27
2018-10-21T21:23:33.837Z,2.60
2018-10-21T21:26:01.814Z,2.90
2018-10-21T21:28:29.731Z,2.73
2018-10-21T21:30:57.486Z,2.70
2018-10-21T21:33:26.252Z,3.07
2018-10-21T21:35:54.039Z,2.77
2018-10-21T21:38:21.856Z,2.70
2018-10-21T21:40:49.716Z,2.77
2018-10-21T21:43:17.521Z,3.03
2018-10-21T21:45:45.411Z,2.50
2018-10-21T21:48:13.308Z,2.17
2018-10-21T21:50:41.898Z,2.37
2018-10-21T21:53:09.688Z,2.13
2018-10-21T21:55:37.500Z,1.47
2018-10-21T21:58:05.906Z,1.70
2018-10-21T22:00:33.824Z,1.17
2018-10-21T22:03:01.656Z,1.17
2018-10-21T22:05:29.461Z,1.10
2018-10-21T22:07:57.433Z,1.03
2018-10-21T22:10:25.260Z,1.20
2018-10-21T22:12:53.076Z,1.10
2018-10-21T22:15:20.965Z,1.00
2018-10-21T22:17:48.851Z,1.20
2018-10-21T22:20:16.654Z,1.07
2018-10-21T22:22:44.524Z,1.00
2018-10-21T22:25:12.334Z,1.10
2018-10-21T22:27:40.168Z,1.10
2018-10-21T22:30:09.609Z,1.10
2018-10-21T22:32:37.347Z,1.20
2018-10-21T22:35:06.294Z,1.30
2018-10-21T22:37:34.502Z,1.03
2018-10-21T22:40:02.337Z,1.10
2018-10-21T22:42:30.739Z,1.30
2018-10-21T22:44:58.557Z,1.20
2018-10-21T22:47:26.400Z,1.10
2018-10-21T22:49:54.269Z,1.20
2018-10-21T22:52:22.089Z,1.13
2018-10-21T22:54:50.240Z,1.10
2018-10-21T22:57:19.380Z,1.20
2018-10-21T22:59:48.655Z,1.07
2018-10-21T23:02:16.683Z,1.20
2018-10-21T23:04:45.236Z,1.20
2018-10-21T23:07:13.047Z,1.40
2018-10-21T23:09:40.836Z,1.20
2018-10-21T23:12:08.830Z,1.20
2018-10-21T23:14:36.871Z,1.00
2018-10-21T23:17:04.895Z,1.20
2018-10-21T23:19:40.860Z,1.33
2018-10-21T23:22:09.038Z,1.27
2018-10-21T23:24:37.649Z,1.47
2018-10-21T23:27:06.031Z,1.70
2018-10-21T23:29:33.872Z,1.63
2018-10-21T23:32:01.696Z,2.10
2018-10-21T23:34:29.551Z,1.97
2018-10-21T23:36:57.328Z,2.10
2018-10-21T23:39:26.003Z,2.27
2018-10-21T23:41:53.813Z,2.30
2018-10-21T23:44:21.763Z,2.87
2018-10-21T23:46:50.092Z,2.53
2018-10-21T23:49:18.235Z,2.50
2018-10-21T23:51:46.328Z,2.30
2018-10-21T23:54:14.218Z,1.93
2018-10-21T23:56:42.180Z,2.23
2018-10-21T23:59:10.846Z,2.30
